sensor_id;sensor_type;location;lat;lon;timestamp;pressure;altitude;pressure_sealevel;temperature;humidity
65376;BME280;51976;47.332;9.404;2022-12-10T00:01:33;91349.66;;;19.44;35.91
65376;BME280;51976;47.332;9.404;2022-12-10T00:03:59;91348.88;;;19.43;36.06
65376;BME280;51976;47.332;9.404;2022-12-10T00:06:27;91347.72;;;19.44;35.94
65376;BME280;51976;47.332;9.404;2022-12-10T00:08:53;91339.09;;;19.42;35.95
65376;BME280;51976;47.332;9.404;2022-12-10T00:11:20;91344.56;;;19.42;35.92
65376;BME280;51976;47.332;9.404;2022-12-10T00:13:47;91341.84;;;19.42;35.84
65376;BME280;51976;47.332;9.404;2022-12-10T00:16:15;91339.91;;;19.43;35.88
65376;BME280;51976;47.332;9.404;2022-12-10T00:18:41;91343.03;;;19.41;35.94
65376;BME280;51976;47.332;9.404;2022-12-10T00:21:10;91339.88;;;19.39;36.00
65376;BME280;51976;47.332;9.404;2022-12-10T00:23:37;91325.84;;;19.41;36.05
65376;BME280;51976;47.332;9.404;2022-12-10T00:26:04;91329.75;;;19.40;35.88
65376;BME280;51976;47.332;9.404;2022-12-10T00:28:30;91325.81;;;19.37;35.93
65376;BME280;51976;47.332;9.404;2022-12-10T00:31:02;91332.84;;;19.38;36.02
65376;BME280;51976;47.332;9.404;2022-12-10T00:33:28;91331.69;;;19.39;36.09
65376;BME280;51976;47.332;9.404;2022-12-10T00:35:53;91328.94;;;19.39;35.86
65376;BME280;51976;47.332;9.404;2022-12-10T00:38:18;91323.47;;;19.39;35.81
65376;BME280;51976;47.332;9.404;2022-12-10T00:40:44;91317.97;;;19.36;35.87
65376;BME280;51976;47.332;9.404;2022-12-10T00:43:09;91317.97;;;19.36;35.87
65376;BME280;51976;47.332;9.404;2022-12-10T00:45:34;91323.44;;;19.36;35.87
65376;BME280;51976;47.332;9.404;2022-12-10T00:48:00;91321.88;;;19.35;36.04
65376;BME280;51976;47.332;9.404;2022-12-10T00:50:25;91329.28;;;19.34;36.18
65376;BME280;51976;47.332;9.404;2022-12-10T00:52:50;91330.44;;;19.33;35.89
65376;BME280;51976;47.332;9.404;2022-12-10T00:55:16;91325.75;;;19.34;35.89
65376;BME280;51976;47.332;9.404;2022-12-10T00:57:42;91319.50;;;19.33;35.84
65376;BME280;51976;47.332;9.404;2022-12-10T01:00:07;91323.41;;;19.32;36.15
65376;BME280;51976;47.332;9.404;2022-12-10T01:02:33;91314.03;;;19.33;35.89
65376;BME280;51976;47.332;9.404;2022-12-10T01:04:58;91317.94;;;19.32;36.15
65376;BME280;51976;47.332;9.404;2022-12-10T01:07:24;91321.81;;;19.31;35.74
65376;BME280;51976;47.332;9.404;2022-12-10T01:09:49;91317.94;;;19.32;35.87
65376;BME280;51976;47.332;9.404;2022-12-10T01:12:15;91316.72;;;19.30;35.88
65376;BME280;51976;47.332;9.404;2022-12-10T01:14:40;91318.66;;;19.29;35.90
65376;BME280;51976;47.332;9.404;2022-12-10T01:17:05;91327.66;;;19.30;35.84
65376;BME280;51976;47.332;9.404;2022-12-10T01:19:33;91325.72;;;19.30;36.05
65376;BME280;51976;47.332;9.404;2022-12-10T01:21:58;91325.66;;;19.26;35.97
65376;BME280;51976;47.332;9.404;2022-12-10T01:24:26;91322.94;;;19.26;35.79
65376;BME280;51976;47.332;9.404;2022-12-10T01:26:52;91325.72;;;19.30;35.83
65376;BME280;51976;47.332;9.404;2022-12-10T01:29:18;91324.13;;;19.29;35.85
65376;BME280;51976;47.332;9.404;2022-12-10T01:31:43;91319.03;;;19.27;35.89
65376;BME280;51976;47.332;9.404;2022-12-10T01:34:12;91311.22;;;19.26;36.04
65376;BME280;51976;47.332;9.404;2022-12-10T01:36:41;91312.00;;;19.26;35.96
65376;BME280;51976;47.332;9.404;2022-12-10T01:39:10;91322.16;;;19.26;35.92
65376;BME280;51976;47.332;9.404;2022-12-10T01:41:40;91328.41;;;19.26;35.98
65376;BME280;51976;47.332;9.404;2022-12-10T01:47:11;91329.91;;;19.24;35.83
65376;BME280;51976;47.332;9.404;2022-12-10T01:49:38;91331.50;;;19.25;35.86
65376;BME280;51976;47.332;9.404;2022-12-10T01:52:08;91333.03;;;19.22;35.65
65376;BME280;51976;47.332;9.404;2022-12-10T01:54:37;91337.69;;;19.22;36.15
65376;BME280;51976;47.332;9.404;2022-12-10T01:57:06;91340.06;;;19.23;35.85
65376;BME280;51976;47.332;9.404;2022-12-10T01:59:33;91346.69;;;19.22;35.88
65376;BME280;51976;47.332;9.404;2022-12-10T02:02:18;91336.53;;;19.23;35.92
65376;BME280;51976;47.332;9.404;2022-12-10T02:05:12;91334.19;;;19.21;35.87
65376;BME280;51976;47.332;9.404;2022-12-10T02:08:16;91334.19;;;19.21;36.01
65376;BME280;51976;47.332;9.404;2022-12-10T02:11:04;91328.66;;;19.18;36.08
65376;BME280;51976;47.332;9.404;2022-12-10T02:13:39;91326.34;;;19.20;35.83
65376;BME280;51976;47.332;9.404;2022-12-10T02:16:14;91323.63;;;19.20;35.93
65376;BME280;51976;47.332;9.404;2022-12-10T02:18:50;91329.47;;;19.18;35.85
65376;BME280;51976;47.332;9.404;2022-12-10T02:21:27;91331.03;;;19.19;35.70
65376;BME280;51976;47.332;9.404;2022-12-10T02:23:59;91336.06;;;19.17;36.02
65376;BME280;51976;47.332;9.404;2022-12-10T02:26:35;91319.31;;;19.19;35.85
65376;BME280;51976;47.332;9.404;2022-12-10T02:29:20;91324.00;;;19.18;35.70
65376;BME280;51976;47.332;9.404;2022-12-10T02:31:52;91324.78;;;19.19;35.68
65376;BME280;51976;47.332;9.404;2022-12-10T02:34:19;91310.72;;;19.17;35.99
65376;BME280;51976;47.332;9.404;2022-12-10T02:36:49;91320.47;;;19.18;35.88
65376;BME280;51976;47.332;9.404;2022-12-10T02:39:19;91316.97;;;19.17;35.68
65376;BME280;51976;47.332;9.404;2022-12-10T02:41:50;91311.06;;;19.15;35.98
65376;BME280;51976;47.332;9.404;2022-12-10T02:44:17;91313.81;;;19.15;35.97
65376;BME280;51976;47.332;9.404;2022-12-10T02:46:45;91304.47;;;19.16;35.97
65376;BME280;51976;47.332;9.404;2022-12-10T02:49:14;91302.50;;;19.17;35.98
65376;BME280;51976;47.332;9.404;2022-12-10T02:51:40;91302.88;;;19.15;35.89
65376;BME280;51976;47.332;9.404;2022-12-10T02:54:33;91300.94;;;19.16;35.67
65376;BME280;51976;47.332;9.404;2022-12-10T02:56:58;91294.31;;;19.17;35.92
65376;BME280;51976;47.332;9.404;2022-12-10T02:59:44;91291.59;;;19.17;35.59
65376;BME280;51976;47.332;9.404;2022-12-10T03:02:18;91304.81;;;19.15;35.75
65376;BME280;51976;47.332;9.404;2022-12-10T03:05:19;91301.34;;;19.14;35.89
65376;BME280;51976;47.332;9.404;2022-12-10T03:07:48;91308.34;;;19.15;35.76
65376;BME280;51976;47.332;9.404;2022-12-10T03:10:27;91311.06;;;19.15;35.85
65376;BME280;51976;47.332;9.404;2022-12-10T03:13:00;91304.06;;;19.14;35.94
65376;BME280;51976;47.332;9.404;2022-12-10T03:15:29;91313.03;;;19.15;35.94
65376;BME280;51976;47.332;9.404;2022-12-10T03:17:59;91306.81;;;19.14;35.97
65376;BME280;51976;47.332;9.404;2022-12-10T03:20:26;91311.47;;;19.14;35.83
65376;BME280;51976;47.332;9.404;2022-12-10T03:22:52;91314.56;;;19.12;35.87
65376;BME280;51976;47.332;9.404;2022-12-10T03:25:23;91313.78;;;19.12;35.97
65376;BME280;51976;47.332;9.404;2022-12-10T03:27:51;91316.16;;;19.13;35.71
65376;BME280;51976;47.332;9.404;2022-12-10T03:30:19;91318.47;;;19.11;35.90
65376;BME280;51976;47.332;9.404;2022-12-10T03:32:44;91312.22;;;19.11;35.71
65376;BME280;51976;47.332;9.404;2022-12-10T03:35:11;91299.75;;;19.13;35.97
65376;BME280;51976;47.332;9.404;2022-12-10T03:37:38;91309.06;;;19.09;35.73
65376;BME280;51976;47.332;9.404;2022-12-10T03:40:05;91306.75;;;19.11;35.59
65376;BME280;51976;47.332;9.404;2022-12-10T03:42:31;91309.06;;;19.09;35.73
65376;BME280;51976;47.332;9.404;2022-12-10T03:44:57;91314.16;;;19.10;35.92
65376;BME280;51976;47.332;9.404;2022-12-10T03:47:23;91311.44;;;19.10;35.94
65376;BME280;51976;47.332;9.404;2022-12-10T03:49:48;91313.00;;;19.11;35.98
65376;BME280;51976;47.332;9.404;2022-12-10T03:52:14;91318.47;;;19.11;35.73
65376;BME280;51976;47.332;9.404;2022-12-10T03:54:39;91325.09;;;19.10;35.75
65376;BME280;51976;47.332;9.404;2022-12-10T03:57:05;91320.78;;;19.09;35.92
65376;BME280;51976;47.332;9.404;2022-12-10T03:59:31;91335.22;;;19.10;35.90
65376;BME280;51976;47.332;9.404;2022-12-10T04:01:56;91330.53;;;19.10;36.00
65376;BME280;51976;47.332;9.404;2022-12-10T04:04:22;91327.03;;;19.10;35.76
65376;BME280;51976;47.332;9.404;2022-12-10T04:06:47;91334.44;;;19.09;35.70
65376;BME280;51976;47.332;9.404;2022-12-10T04:09:14;91334.03;;;19.07;35.83
65376;BME280;51976;47.332;9.404;2022-12-10T04:11:39;91327.41;;;19.08;35.93
65376;BME280;51976;47.332;9.404;2022-12-10T04:14:05;91329.72;;;19.06;35.83
65376;BME280;51976;47.332;9.404;2022-12-10T04:16:50;91329.34;;;19.08;35.72
65376;BME280;51976;47.332;9.404;2022-12-10T04:19:17;91326.63;;;19.08;35.91
65376;BME280;51976;47.332;9.404;2022-12-10T04:21:44;91320.38;;;19.07;35.71
65376;BME280;51976;47.332;9.404;2022-12-10T04:24:32;91317.63;;;19.07;35.68
65376;BME280;51976;47.332;9.404;2022-12-10T04:27:28;91312.16;;;19.07;35.93
65376;BME280;51976;47.332;9.404;2022-12-10T04:29:55;91315.69;;;19.08;35.72
65376;BME280;51976;47.332;9.404;2022-12-10T04:32:22;91305.91;;;19.07;35.65
65376;BME280;51976;47.332;9.404;2022-12-10T04:34:48;91312.16;;;19.07;35.58
65376;BME280;51976;47.332;9.404;2022-12-10T04:37:14;91312.53;;;19.06;35.73
65376;BME280;51976;47.332;9.404;2022-12-10T04:39:40;91312.53;;;19.06;35.78
65376;BME280;51976;47.332;9.404;2022-12-10T04:42:06;91306.72;;;19.07;35.67
65376;BME280;51976;47.332;9.404;2022-12-10T04:44:32;91310.22;;;19.08;35.64
65376;BME280;51976;47.332;9.404;2022-12-10T04:46:58;91313.75;;;19.08;35.89
65376;BME280;51976;47.332;9.404;2022-12-10T04:49:24;91319.22;;;19.08;35.66
65376;BME280;51976;47.332;9.404;2022-12-10T04:51:50;91314.16;;;19.10;35.85
65376;BME280;51976;47.332;9.404;2022-12-10T04:54:16;91303.25;;;19.10;35.62
65376;BME280;51976;47.332;9.404;2022-12-10T04:56:42;91308.31;;;19.12;35.48
65376;BME280;51976;47.332;9.404;2022-12-10T04:59:08;91306.38;;;19.12;35.68
65376;BME280;51976;47.332;9.404;2022-12-10T05:01:34;91305.22;;;19.13;35.79
65376;BME280;51976;47.332;9.404;2022-12-10T05:04:02;91303.25;;;19.10;35.63
65376;BME280;51976;47.332;9.404;2022-12-10T05:06:29;91305.97;;;19.10;35.77
65376;BME280;51976;47.332;9.404;2022-12-10T05:08:54;91298.50;;;19.07;35.79
65376;BME280;51976;47.332;9.404;2022-12-10T05:11:21;91304.75;;;19.08;35.65
65376;BME280;51976;47.332;9.404;2022-12-10T05:13:47;91298.88;;;19.06;36.05
65376;BME280;51976;47.332;9.404;2022-12-10T05:16:16;91301.25;;;19.07;35.81
65376;BME280;51976;47.332;9.404;2022-12-10T05:18:42;91300.47;;;19.07;35.68
65376;BME280;51976;47.332;9.404;2022-12-10T05:21:11;91303.97;;;19.07;35.72
65376;BME280;51976;47.332;9.404;2022-12-10T05:23:39;91296.16;;;19.06;35.99
65376;BME280;51976;47.332;9.404;2022-12-10T05:26:16;91292.63;;;19.05;35.73
65376;BME280;51976;47.332;9.404;2022-12-10T05:28:45;91289.91;;;19.05;35.69
65376;BME280;51976;47.332;9.404;2022-12-10T05:31:18;91300.81;;;19.05;35.66
65376;BME280;51976;47.332;9.404;2022-12-10T05:33:44;91292.63;;;19.05;35.86
65376;BME280;51976;47.332;9.404;2022-12-10T05:36:12;91297.31;;;19.05;35.83
65376;BME280;51976;47.332;9.404;2022-12-10T05:38:39;91303.56;;;19.05;35.99
65376;BME280;51976;47.332;9.404;2022-12-10T05:41:06;91308.59;;;19.03;35.63
65376;BME280;51976;47.332;9.404;2022-12-10T05:43:33;91311.34;;;19.03;35.70
65376;BME280;51976;47.332;9.404;2022-12-10T05:46:00;91320.31;;;19.04;35.71
65376;BME280;51976;47.332;9.404;2022-12-10T05:48:26;91327.31;;;19.01;35.81
65376;BME280;51976;47.332;9.404;2022-12-10T05:50:51;91325.34;;;19.02;35.88
65376;BME280;51976;47.332;9.404;2022-12-10T05:53:16;91321.84;;;19.01;35.71
65376;BME280;51976;47.332;9.404;2022-12-10T05:55:43;91326.94;;;19.03;35.72
65376;BME280;51976;47.332;9.404;2022-12-10T05:58:08;91327.72;;;19.03;35.88
65376;BME280;51976;47.332;9.404;2022-12-10T06:00:34;91333.19;;;19.03;35.66
65376;BME280;51976;47.332;9.404;2022-12-10T06:02:59;91327.72;;;19.03;35.76
65376;BME280;51976;47.332;9.404;2022-12-10T06:05:25;91326.94;;;19.03;35.86
65376;BME280;51976;47.332;9.404;2022-12-10T06:07:50;91339.44;;;19.04;35.76
65376;BME280;51976;47.332;9.404;2022-12-10T06:10:16;91343.38;;;19.06;35.84
65376;BME280;51976;47.332;9.404;2022-12-10T06:12:41;91338.38;;;19.12;35.38
65376;BME280;51976;47.332;9.404;2022-12-10T06:15:07;91342.31;;;19.14;35.47
65376;BME280;51976;47.332;9.404;2022-12-10T06:17:32;91349.31;;;19.15;35.56
65376;BME280;51976;47.332;9.404;2022-12-10T06:19:58;91352.88;;;19.19;35.45
65376;BME280;51976;47.332;9.404;2022-12-10T06:22:23;91348.22;;;19.20;35.29
65376;BME280;51976;47.332;9.404;2022-12-10T06:24:48;91354.88;;;19.22;35.41
65376;BME280;51976;47.332;9.404;2022-12-10T06:27:14;91356.88;;;19.25;35.31
65376;BME280;51976;47.332;9.404;2022-12-10T06:29:39;91360.03;;;19.27;35.24
65376;BME280;51976;47.332;9.404;2022-12-10T06:32:05;91364.75;;;19.31;35.41
65376;BME280;51976;47.332;9.404;2022-12-10T06:34:31;91365.16;;;19.33;35.33
65376;BME280;51976;47.332;9.404;2022-12-10T06:36:56;91371.00;;;19.31;35.22
65376;BME280;51976;47.332;9.404;2022-12-10T06:39:21;91373.00;;;19.34;35.58
65376;BME280;51976;47.332;9.404;2022-12-10T06:41:47;91372.19;;;19.34;35.38
65376;BME280;51976;47.332;9.404;2022-12-10T06:44:12;91378.81;;;19.33;35.26
65376;BME280;51976;47.332;9.404;2022-12-10T06:46:39;91374.94;;;19.34;35.50
65376;BME280;51976;47.332;9.404;2022-12-10T06:49:06;91375.72;;;19.34;35.52
65376;BME280;51976;47.332;9.404;2022-12-10T06:51:31;91367.22;;;19.39;35.38
65376;BME280;51976;47.332;9.404;2022-12-10T06:53:57;91362.97;;;19.45;35.68
65376;BME280;51976;47.332;9.404;2022-12-10T06:56:22;91366.09;;;19.47;35.29
65376;BME280;51976;47.332;9.404;2022-12-10T06:58:47;91367.69;;;19.48;35.38
65376;BME280;51976;47.332;9.404;2022-12-10T07:01:19;91368.59;;;19.56;35.17
65376;BME280;51976;47.332;9.404;2022-12-10T07:03:51;91365.03;;;19.52;35.27
65376;BME280;51976;47.332;9.404;2022-12-10T07:06:18;91373.28;;;19.55;35.16
65376;BME280;51976;47.332;9.404;2022-12-10T07:08:43;91369.75;;;19.55;35.41
65376;BME280;51976;47.332;9.404;2022-12-10T07:11:11;91361.59;;;19.58;35.17
65376;BME280;51976;47.332;9.404;2022-12-10T07:13:37;91364.69;;;19.57;35.32
65376;BME280;51976;47.332;9.404;2022-12-10T07:16:07;91361.56;;;19.55;35.13
65376;BME280;51976;47.332;9.404;2022-12-10T07:18:36;91369.38;;;19.56;35.21
65376;BME280;51976;47.332;9.404;2022-12-10T07:21:01;91368.22;;;19.57;35.26
65376;BME280;51976;47.332;9.404;2022-12-10T07:23:27;91367.81;;;19.55;35.32
65376;BME280;51976;47.332;9.404;2022-12-10T07:25:54;91374.06;;;19.56;35.48
65376;BME280;51976;47.332;9.404;2022-12-10T07:28:19;91360.81;;;19.58;35.17
65376;BME280;51976;47.332;9.404;2022-12-10T07:30:45;91374.09;;;19.59;35.43
65376;BME280;51976;47.332;9.404;2022-12-10T07:33:10;91367.47;;;19.60;35.37
65376;BME280;51976;47.332;9.404;2022-12-10T07:35:38;91366.66;;;19.56;35.23
65376;BME280;51976;47.332;9.404;2022-12-10T07:38:04;91360.38;;;19.56;35.30
65376;BME280;51976;47.332;9.404;2022-12-10T07:40:30;91363.97;;;19.60;35.32
65376;BME280;51976;47.332;9.404;2022-12-10T07:42:57;91371.78;;;19.62;35.40
65376;BME280;51976;47.332;9.404;2022-12-10T07:45:22;91380.81;;;19.66;35.19
65376;BME280;51976;47.332;9.404;2022-12-10T07:47:47;91374.16;;;19.63;35.47
65376;BME280;51976;47.332;9.404;2022-12-10T07:50:13;91381.16;;;19.60;35.31
65376;BME280;51976;47.332;9.404;2022-12-10T07:52:38;91386.66;;;19.64;35.39
65376;BME280;51976;47.332;9.404;2022-12-10T07:55:04;91390.97;;;19.65;35.20
65376;BME280;51976;47.332;9.404;2022-12-10T07:57:30;91396.38;;;19.62;35.49
65376;BME280;51976;47.332;9.404;2022-12-10T07:59:56;91391.72;;;19.62;35.25
65376;BME280;51976;47.332;9.404;2022-12-10T08:02:23;91385.81;;;19.60;35.11
65376;BME280;51976;47.332;9.404;2022-12-10T08:04:48;91386.16;;;19.55;34.99
65376;BME280;51976;47.332;9.404;2022-12-10T08:07:14;91390.84;;;19.54;34.95
65376;BME280;51976;47.332;9.404;2022-12-10T08:09:39;91385.25;;;19.47;34.81
65376;BME280;51976;47.332;9.404;2022-12-10T08:12:04;91393.81;;;19.46;35.00
65376;BME280;51976;47.332;9.404;2022-12-10T08:14:30;91397.69;;;19.45;35.05
65376;BME280;51976;47.332;9.404;2022-12-10T08:16:55;91400.00;;;19.43;34.81
65376;BME280;51976;47.332;9.404;2022-12-10T08:19:21;91393.03;;;19.45;34.74
65376;BME280;51976;47.332;9.404;2022-12-10T08:21:46;91391.03;;;19.42;34.69
65376;BME280;51976;47.332;9.404;2022-12-10T08:24:11;91389.84;;;19.40;34.54
65376;BME280;51976;47.332;9.404;2022-12-10T08:26:37;91401.56;;;19.40;34.59
65376;BME280;51976;47.332;9.404;2022-12-10T08:29:03;91399.63;;;19.41;34.63
65376;BME280;51976;47.332;9.404;2022-12-10T08:31:29;91402.72;;;19.39;34.36
65376;BME280;51976;47.332;9.404;2022-12-10T08:33:54;91395.69;;;19.38;34.37
65376;BME280;51976;47.332;9.404;2022-12-10T08:36:20;91400.38;;;19.38;33.95
65376;BME280;51976;47.332;9.404;2022-12-10T08:38:46;91408.97;;;19.40;34.36
65376;BME280;51976;47.332;9.404;2022-12-10T08:41:14;91398.84;;;19.44;34.24
65376;BME280;51976;47.332;9.404;2022-12-10T08:43:40;91408.63;;;19.45;34.42
65376;BME280;51976;47.332;9.404;2022-12-10T08:46:06;91406.72;;;19.49;34.13
65376;BME280;51976;47.332;9.404;2022-12-10T08:48:32;91408.75;;;19.52;34.31
65376;BME280;51976;47.332;9.404;2022-12-10T08:50:57;91417.75;;;19.52;34.16
65376;BME280;51976;47.332;9.404;2022-12-10T08:53:23;91409.59;;;19.56;34.26
65376;BME280;51976;47.332;9.404;2022-12-10T08:55:52;91408.81;;;19.55;34.08
65376;BME280;51976;47.332;9.404;2022-12-10T08:58:19;91399.88;;;19.58;34.09
65376;BME280;51976;47.332;9.404;2022-12-10T09:00:44;91408.06;;;19.58;34.21
65376;BME280;51976;47.332;9.404;2022-12-10T09:03:10;91408.06;;;19.58;34.18
65376;BME280;51976;47.332;9.404;2022-12-10T09:05:35;91410.44;;;19.60;34.34
65376;BME280;51976;47.332;9.404;2022-12-10T09:08:01;91413.16;;;19.60;34.34
65376;BME280;51976;47.332;9.404;2022-12-10T09:10:26;91420.56;;;19.59;34.43
65376;BME280;51976;47.332;9.404;2022-12-10T09:12:52;91425.66;;;19.61;34.48
65376;BME280;51976;47.332;9.404;2022-12-10T09:15:17;91429.56;;;19.60;34.50
65376;BME280;51976;47.332;9.404;2022-12-10T09:17:42;91437.34;;;19.58;34.46
65376;BME280;51976;47.332;9.404;2022-12-10T09:20:08;91435.41;;;19.58;34.64
65376;BME280;51976;47.332;9.404;2022-12-10T09:22:33;91450.28;;;19.61;34.38
65376;BME280;51976;47.332;9.404;2022-12-10T09:25:03;91456.56;;;19.65;34.50
65376;BME280;51976;47.332;9.404;2022-12-10T09:27:29;91453.44;;;19.63;34.49
65376;BME280;51976;47.332;9.404;2022-12-10T09:29:55;91455.38;;;19.63;34.50
65376;BME280;51976;47.332;9.404;2022-12-10T09:32:20;91454.22;;;19.64;34.49
65376;BME280;51976;47.332;9.404;2022-12-10T09:34:46;91453.44;;;19.63;34.37
65376;BME280;51976;47.332;9.404;2022-12-10T09:37:11;91456.91;;;19.60;34.30
65376;BME280;51976;47.332;9.404;2022-12-10T09:39:36;91464.34;;;19.63;34.65
65376;BME280;51976;47.332;9.404;2022-12-10T09:42:26;91466.72;;;19.65;34.46
65376;BME280;51976;47.332;9.404;2022-12-10T09:45:36;91466.31;;;19.63;34.55
65376;BME280;51976;47.332;9.404;2022-12-10T09:48:30;91464.34;;;19.63;34.67
65376;BME280;51976;47.332;9.404;2022-12-10T09:51:10;91467.50;;;19.65;34.47
65376;BME280;51976;47.332;9.404;2022-12-10T09:53:37;91467.50;;;19.65;34.51
65376;BME280;51976;47.332;9.404;2022-12-10T09:56:04;91466.34;;;19.66;34.59
65376;BME280;51976;47.332;9.404;2022-12-10T09:58:30;91469.47;;;19.65;34.49
65376;BME280;51976;47.332;9.404;2022-12-10T10:00:59;91472.97;;;19.65;34.44
65376;BME280;51976;47.332;9.404;2022-12-10T10:03:25;91471.84;;;19.70;34.71
65376;BME280;51976;47.332;9.404;2022-12-10T10:05:52;91473.03;;;19.69;34.47
65376;BME280;51976;47.332;9.404;2022-12-10T10:08:36;91473.81;;;19.69;34.57
65376;BME280;51976;47.332;9.404;2022-12-10T10:11:04;91470.28;;;19.69;34.61
65376;BME280;51976;47.332;9.404;2022-12-10T10:13:53;91468.75;;;19.71;34.85
65376;BME280;51976;47.332;9.404;2022-12-10T10:16:26;91468.75;;;19.71;34.51
65376;BME280;51976;47.332;9.404;2022-12-10T10:19:04;91471.84;;;19.70;34.71
65376;BME280;51976;47.332;9.404;2022-12-10T10:21:36;91469.50;;;19.68;34.58
65376;BME280;51976;47.332;9.404;2022-12-10T10:24:04;91475.78;;;19.72;34.58
65376;BME280;51976;47.332;9.404;2022-12-10T10:26:31;91475.78;;;19.72;34.77
65376;BME280;51976;47.332;9.404;2022-12-10T10:29:00;91476.94;;;19.71;34.81
65376;BME280;51976;47.332;9.404;2022-12-10T10:31:29;91478.16;;;19.74;34.66
65376;BME280;51976;47.332;9.404;2022-12-10T10:33:57;91476.94;;;19.71;34.66
65376;BME280;51976;47.332;9.404;2022-12-10T10:36:25;91481.25;;;19.72;34.48
65376;BME280;51976;47.332;9.404;2022-12-10T10:38:51;91481.63;;;19.71;34.66
65376;BME280;51976;47.332;9.404;2022-12-10T10:41:17;91481.25;;;19.72;34.52
65376;BME280;51976;47.332;9.404;2022-12-10T10:43:43;91496.50;;;19.73;34.54
65376;BME280;51976;47.332;9.404;2022-12-10T10:46:22;91492.97;;;19.73;34.48
65376;BME280;51976;47.332;9.404;2022-12-10T10:48:49;91487.94;;;19.75;34.84
65376;BME280;51976;47.332;9.404;2022-12-10T10:51:19;91490.28;;;19.76;34.82
65376;BME280;51976;47.332;9.404;2022-12-10T10:53:50;91489.09;;;19.74;34.81
65376;BME280;51976;47.332;9.404;2022-12-10T10:56:25;91485.97;;;19.75;34.88
65376;BME280;51976;47.332;9.404;2022-12-10T10:58:58;91485.97;;;19.75;34.53
65376;BME280;51976;47.332;9.404;2022-12-10T11:01:43;91490.59;;;19.71;34.70
65376;BME280;51976;47.332;9.404;2022-12-10T11:04:09;91486.34;;;19.74;34.62
65376;BME280;51976;47.332;9.404;2022-12-10T11:06:35;91488.28;;;19.73;34.83
65376;BME280;51976;47.332;9.404;2022-12-10T11:09:00;91487.56;;;19.76;34.77
65376;BME280;51976;47.332;9.404;2022-12-10T11:11:39;91489.88;;;19.74;34.88
65376;BME280;51976;47.332;9.404;2022-12-10T11:14:23;91485.19;;;19.75;34.78
65376;BME280;51976;47.332;9.404;2022-12-10T11:16:49;91489.88;;;19.74;34.77
65376;BME280;51976;47.332;9.404;2022-12-10T11:19:22;91494.19;;;19.75;34.97
65376;BME280;51976;47.332;9.404;2022-12-10T11:21:50;91502.81;;;19.77;34.82
65376;BME280;51976;47.332;9.404;2022-12-10T11:24:17;91495.75;;;19.76;34.63
65376;BME280;51976;47.332;9.404;2022-12-10T11:26:57;91498.16;;;19.81;34.55
65376;BME280;51976;47.332;9.404;2022-12-10T11:29:42;91497.75;;;19.79;34.86
65376;BME280;51976;47.332;9.404;2022-12-10T11:32:21;91504.38;;;19.78;34.75
65376;BME280;51976;47.332;9.404;2022-12-10T11:35:12;91498.97;;;19.82;34.83
65376;BME280;51976;47.332;9.404;2022-12-10T11:40:49;91491.44;;;19.75;34.80
65376;BME280;51976;47.332;9.404;2022-12-10T11:43:32;91501.97;;;19.73;34.67
65376;BME280;51976;47.332;9.404;2022-12-10T11:49:42;91505.13;;;19.75;34.77
65376;BME280;51976;47.332;9.404;2022-12-10T11:52:55;91506.63;;;19.69;34.54
65376;BME280;51976;47.332;9.404;2022-12-10T11:55:45;91511.69;;;19.67;34.78
65376;BME280;51976;47.332;9.404;2022-12-10T11:58:31;91512.09;;;19.69;34.88
65376;BME280;51976;47.332;9.404;2022-12-10T12:01:09;91517.16;;;19.71;34.87
65376;BME280;51976;47.332;9.404;2022-12-10T12:04:01;91519.53;;;19.72;34.97
65376;BME280;51976;47.332;9.404;2022-12-10T12:09:59;91515.22;;;19.71;34.70
65376;BME280;51976;47.332;9.404;2022-12-10T12:12:36;91507.44;;;19.73;34.75
65376;BME280;51976;47.332;9.404;2022-12-10T12:15:16;91510.53;;;19.72;34.68
65376;BME280;51976;47.332;9.404;2022-12-10T12:17:52;91514.47;;;19.74;34.81
65376;BME280;51976;47.332;9.404;2022-12-10T12:20:25;91523.09;;;19.76;35.03
65376;BME280;51976;47.332;9.404;2022-12-10T12:23:12;91527.00;;;19.75;34.93
65376;BME280;51976;47.332;9.404;2022-12-10T12:25:46;91528.94;;;19.75;34.72
65376;BME280;51976;47.332;9.404;2022-12-10T12:28:28;91530.50;;;19.76;34.84
65376;BME280;51976;47.332;9.404;2022-12-10T12:31:05;91537.13;;;19.75;34.72
65376;BME280;51976;47.332;9.404;2022-12-10T12:33:42;91539.09;;;19.74;35.08
65376;BME280;51976;47.332;9.404;2022-12-10T12:36:14;91550.03;;;19.74;34.75
65376;BME280;51976;47.332;9.404;2022-12-10T12:38:49;91550.03;;;19.74;34.94
65376;BME280;51976;47.332;9.404;2022-12-10T12:41:32;91555.06;;;19.72;34.83
65376;BME280;51976;47.332;9.404;2022-12-10T12:44:12;91558.97;;;19.71;34.93
65376;BME280;51976;47.332;9.404;2022-12-10T12:46:43;91558.97;;;19.71;34.80
65376;BME280;51976;47.332;9.404;2022-12-10T12:49:25;91560.53;;;19.72;35.06
65376;BME280;51976;47.332;9.404;2022-12-10T12:52:09;91567.94;;;19.72;34.97
65376;BME280;51976;47.332;9.404;2022-12-10T12:54:40;91572.25;;;19.73;35.14
65376;BME280;51976;47.332;9.404;2022-12-10T12:57:24;91567.94;;;19.72;35.08
65376;BME280;51976;47.332;9.404;2022-12-10T13:00:01;91570.25;;;19.70;35.15
65376;BME280;51976;47.332;9.404;2022-12-10T13:02:53;91576.53;;;19.70;35.04
65376;BME280;51976;47.332;9.404;2022-12-10T13:05:31;91578.09;;;19.71;35.18
65376;BME280;51976;47.332;9.404;2022-12-10T13:08:23;91582.00;;;19.70;35.19
65376;BME280;51976;47.332;9.404;2022-12-10T13:14:13;91592.53;;;19.68;35.16
65376;BME280;51976;47.332;9.404;2022-12-10T13:16:48;91586.28;;;19.68;34.93
65376;BME280;51976;47.332;9.404;2022-12-10T13:19:25;91595.28;;;19.68;34.93
65376;BME280;51976;47.332;9.404;2022-12-10T13:22:06;91596.06;;;19.69;35.19
65376;BME280;51976;47.332;9.404;2022-12-10T13:24:46;91597.25;;;19.71;35.12
65376;BME280;51976;47.332;9.404;2022-12-10T13:27:18;91608.19;;;19.71;35.02
65376;BME280;51976;47.332;9.404;2022-12-10T13:29:56;91608.97;;;19.72;35.17
65376;BME280;51976;47.332;9.404;2022-12-10T13:32:44;91613.66;;;19.71;35.00